Time;durP1;ratioP1;P1;durP2;ratioP2;P2;SDS_P1;SDS_P2;PMS_P1;PMS_P2;Temp;Humidity;BMP_temperature;BMP_pressure;BME280_temperature;BME280_humidity;BME280_pressure;Samples;Min_cycle;Max_cycle;Signal;HPM_P1;HPM_P2
2021/10/03 00:00:45;;;;;;;57.50;39.70;;;;;;;8.00;100.00;99355.06;2041666;29;20637;-72
2021/10/03 00:01:52;;;;;;;57.10;38.50;;;;;;;7.94;100.00;99346.28;2041529;29;20567;-72
2021/10/03 00:03:03;;;;;;;54.40;38.67;;;;;;;7.90;100.00;99350.53;2042001;29;20221;-73
2021/10/03 00:04:07;;;;;;;62.17;39.00;;;;;;;7.89;100.00;99350.81;2042026;29;20195;-72
2021/10/03 00:05:19;;;;;;;57.72;38.45;;;;;;;7.87;100.00;99359.06;2042220;29;20195;-72
2021/10/03 00:06:20;;;;;;;56.95;39.00;;;;;;;7.89;100.00;99356.91;2042074;29;20171;-73
2021/10/03 00:07:23;;;;;;;55.33;38.15;;;;;;;7.87;100.00;99359.06;2041331;29;20201;-73
2021/10/03 00:08:32;;;;;;;53.28;38.65;;;;;;;7.87;100.00;99353.75;2041379;29;20256;-72
2021/10/03 00:09:38;;;;;;;54.03;38.47;;;;;;;7.83;100.00;99352.72;2041466;29;20241;-72
2021/10/03 00:10:49;;;;;;;57.42;39.05;;;;;;;7.81;100.00;99349.50;2041559;29;20206;-72
2021/10/03 00:12:00;;;;;;;51.38;37.42;;;;;;;7.76;100.00;99346.88;2041997;29;20206;-72
2021/10/03 00:13:03;;;;;;;57.05;38.97;;;;;;;7.73;100.00;99347.44;2042174;29;20638;-72
2021/10/03 00:14:11;;;;;;;57.95;36.85;;;;;;;7.68;100.00;99347.44;2041499;29;20203;-72
2021/10/03 00:15:20;;;;;;;51.70;37.40;;;;;;;7.62;100.00;99345.84;2041540;29;20202;-72
2021/10/03 00:16:28;;;;;;;47.80;35.13;;;;;;;7.59;100.00;99349.84;2042047;29;20638;-73
2021/10/03 00:17:35;;;;;;;50.47;36.67;;;;;;;7.54;100.00;99346.41;2042023;29;20657;-72
2021/10/03 00:18:46;;;;;;;52.00;36.67;;;;;;;7.50;100.00;99348.00;2041876;29;20242;-72
2021/10/03 00:19:55;;;;;;;47.63;35.58;;;;;;;7.45;100.00;99340.03;2042006;29;20334;-72
2021/10/03 00:21:00;;;;;;;54.10;36.55;;;;;;;7.38;100.00;99332.34;2041817;29;20195;-72
2021/10/03 00:22:04;;;;;;;54.63;37.00;;;;;;;7.33;100.00;99333.16;2041258;29;20195;-72
2021/10/03 00:23:12;;;;;;;52.78;37.00;;;;;;;7.32;100.00;99339.53;2041338;29;20245;-71
2021/10/03 00:24:22;;;;;;;46.65;36.15;;;;;;;7.30;100.00;99344.31;2041199;29;20611;-72
2021/10/03 00:25:30;;;;;;;51.08;35.88;;;;;;;7.25;100.00;99341.66;2041497;29;20206;-71
2021/10/03 00:26:37;;;;;;;52.08;36.53;;;;;;;7.21;100.00;99337.97;2041644;29;20688;-72
2021/10/03 00:27:46;;;;;;;52.92;36.53;;;;;;;7.18;100.00;99340.34;2034980;29;20203;-72
2021/10/03 00:28:48;;;;;;;62.95;39.22;;;;;;;7.15;100.00;99340.88;2041586;29;20203;-72
2021/10/03 00:29:52;;;;;;;54.60;36.78;;;;;;;7.10;100.00;99333.69;2041238;29;20253;-72
2021/10/03 00:31:00;;;;;;;56.65;36.78;;;;;;;7.10;100.00;99339.00;2041482;29;20202;-71
2021/10/03 00:32:06;;;;;;;52.42;36.78;;;;;;;7.08;100.00;99338.50;2041086;29;20599;-72
2021/10/03 00:33:16;;;;;;;58.30;39.25;;;;;;;7.07;100.00;99328.94;2041290;29;20246;-72
2021/10/03 00:34:26;;;;;;;55.38;38.95;;;;;;;7.09;100.00;99337.44;2041127;29;20627;-72
2021/10/03 00:35:31;;;;;;;60.88;39.22;;;;;;;7.06;100.00;99328.16;2041465;29;20277;-71
2021/10/03 00:36:37;;;;;;;60.45;39.28;;;;;;;7.05;100.00;99326.56;2042007;29;20186;-72
2021/10/03 00:37:40;;;;;;;61.22;39.58;;;;;;;7.04;100.00;99330.28;2041210;29;20247;-72
2021/10/03 00:38:46;;;;;;;61.53;40.40;;;;;;;7.01;100.00;99330.00;2041521;29;20190;-72
2021/10/03 00:39:56;;;;;;;56.95;38.33;;;;;;;6.98;100.00;99325.22;2041449;29;20203;-72
2021/10/03 00:41:01;;;;;;;55.03;37.15;;;;;;;6.96;100.00;99330.00;2041948;29;20281;-71
2021/10/03 00:42:10;;;;;;;64.85;39.97;;;;;;;6.95;100.00;99325.75;2042070;29;20187;-72
2021/10/03 00:43:13;;;;;;;57.70;38.60;;;;;;;6.92;100.00;99329.72;2041806;29;20211;-72
2021/10/03 00:44:15;;;;;;;54.67;38.50;;;;;;;6.89;100.00;99321.50;2041216;29;20278;-72
2021/10/03 00:45:16;;;;;;;60.10;39.08;;;;;;;6.91;100.00;99330.00;2041504;29;20190;-72
2021/10/03 00:46:26;;;;;;;56.95;38.08;;;;;;;6.89;100.00;99327.63;2041202;29;20195;-72
2021/10/03 00:47:39;;;;;;;64.22;40.30;;;;;;;6.93;100.00;99330.53;2041269;29;20190;-72
2021/10/03 00:48:47;;;;;;;58.05;39.75;;;;;;;6.98;100.00;99335.84;2041782;29;20254;-72
2021/10/03 00:49:57;;;;;;;58.15;39.42;;;;;;;7.00;100.00;99333.72;2041793;29;20218;-72
2021/10/03 00:51:01;;;;;;;52.88;38.40;;;;;;;7.01;100.00;99338.75;2041765;29;20221;-72
2021/10/03 00:52:09;;;;;;;59.72;39.83;;;;;;;7.02;100.00;99337.69;2041861;29;20270;-72
2021/10/03 00:53:17;;;;;;;60.95;39.72;;;;;;;6.99;100.00;99337.44;2041815;29;20199;-72
2021/10/03 00:54:26;;;;;;;54.97;38.50;;;;;;;6.96;100.00;99335.31;2041705;29;20221;-72
2021/10/03 00:55:33;;;;;;;59.15;41.60;;;;;;;6.97;100.00;99334.25;2041971;29;20167;-72
2021/10/03 00:56:46;;;;;;;70.93;44.40;;;;;;;6.99;100.00;99337.44;2041047;29;20242;-72
2021/10/03 00:57:59;;;;;;;64.00;41.53;;;;;;;6.98;100.00;99341.94;2041312;29;20195;-72
2021/10/03 00:59:01;;;;;;;63.15;41.50;;;;;;;6.96;100.00;99338.75;2043253;29;20243;-71
2021/10/03 01:00:06;;;;;;;61.47;40.60;;;;;;;6.95;100.00;99333.69;2043401;29;20654;-72
2021/10/03 01:01:16;;;;;;;56.88;39.00;;;;;;;6.94;100.00;99334.75;2042903;29;20297;-71
2021/10/03 01:02:32;;;;;;;56.00;38.08;;;;;;;6.91;100.00;99332.66;2036257;29;20207;-72
2021/10/03 01:03:46;;;;;;;54.50;38.38;;;;;;;6.85;100.00;99337.16;2043131;29;20638;-72
2021/10/03 01:04:52;;;;;;;57.45;37.17;;;;;;;6.82;100.00;99337.69;2043587;29;20183;-72
2021/10/03 01:05:56;;;;;;;53.67;37.88;;;;;;;6.78;100.00;99339.28;2042661;29;20211;-72
2021/10/03 01:07:02;;;;;;;56.53;39.03;;;;;;;6.73;100.00;99332.09;2043243;29;20221;-72
2021/10/03 01:08:05;;;;;;;56.85;39.72;;;;;;;6.73;100.00;99332.09;2042797;29;20704;-72
2021/10/03 01:09:12;;;;;;;60.08;40.92;;;;;;;6.76;100.00;99331.56;2042628;29;20737;-72
2021/10/03 01:10:23;;;;;;;60.50;40.47;;;;;;;6.79;100.00;99332.91;2042869;29;20187;-71
2021/10/03 01:11:32;;;;;;;59.05;40.28;;;;;;;6.84;100.00;99340.06;2043522;29;20211;-72
2021/10/03 01:12:39;;;;;;;65.22;40.03;;;;;;;6.91;100.00;99340.59;2043322;29;20195;-72
2021/10/03 01:13:47;;;;;;;60.13;39.15;;;;;;;6.90;100.00;99339.03;2043350;29;20242;-72
2021/10/03 01:14:53;;;;;;;56.28;38.90;;;;;;;6.89;100.00;99337.44;2043530;29;20649;-72
2021/10/03 01:15:58;;;;;;;57.40;38.75;;;;;;;6.90;100.00;99333.72;2043196;29;20187;-72
2021/10/03 01:17:01;;;;;;;58.00;39.17;;;;;;;6.90;100.00;99333.72;2042480;29;20589;-71
2021/10/03 01:18:06;;;;;;;58.53;40.75;;;;;;;6.90;100.00;99325.75;2042594;29;20262;-72
2021/10/03 01:19:12;;;;;;;54.55;38.03;;;;;;;6.94;100.00;99332.91;2043367;29;20511;-72
2021/10/03 01:20:22;;;;;;;53.13;38.80;;;;;;;6.91;100.00;99324.69;2043477;29;20179;-72
2021/10/03 01:21:28;;;;;;;53.13;38.47;;;;;;;6.88;100.00;99326.03;2042784;29;20203;-72
2021/10/03 01:22:33;;;;;;;56.17;37.97;;;;;;;6.84;100.00;99321.50;2042621;29;20195;-72
2021/10/03 01:23:34;;;;;;;55.00;38.40;;;;;;;6.80;100.00;99319.38;2042538;29;20214;-72
2021/10/03 01:24:46;;;;;;;57.50;38.63;;;;;;;6.78;100.00;99316.22;2042593;29;20690;-72
2021/10/03 01:25:53;;;;;;;57.90;38.28;;;;;;;6.73;100.00;99313.53;2042856;29;20211;-72
2021/10/03 01:27:02;;;;;;;50.17;36.65;;;;;;;6.72;100.00;99316.47;2042598;29;20277;-73
2021/10/03 01:28:07;;;;;;;58.08;38.67;;;;;;;6.67;100.00;99313.81;2043167;29;20688;-72
2021/10/03 01:29:13;;;;;;;52.00;37.05;;;;;;;6.61;100.00;99305.06;2042769;29;20262;-72
2021/10/03 01:30:20;;;;;;;56.13;36.42;;;;;;;6.59;100.00;99315.09;2043094;29;20195;-72
2021/10/03 01:31:24;;;;;;;52.28;37.25;;;;;;;6.57;100.00;99313.78;2043317;29;20273;-72
2021/10/03 01:32:32;;;;;;;53.15;37.85;;;;;;;6.53;100.00;99318.84;2042387;29;20400;-72
2021/10/03 01:33:41;;;;;;;52.28;36.53;;;;;;;6.49;100.00;99320.41;2042335;29;20705;-72
2021/10/03 01:34:52;;;;;;;48.72;36.20;;;;;;;6.44;100.00;99317.75;2043155;29;20179;-72
2021/10/03 01:36:00;;;;;;;57.22;37.83;;;;;;;6.41;100.00;99315.63;2043214;29;20196;-72
2021/10/03 01:37:08;;;;;;;53.63;36.38;;;;;;;6.39;100.00;99315.09;2042304;29;20214;-73
2021/10/03 01:38:11;;;;;;;55.33;38.33;;;;;;;6.36;100.00;99313.75;2035575;29;20203;-71
2021/10/03 01:39:14;;;;;;;55.05;37.50;;;;;;;6.32;100.00;99311.88;2042498;29;20560;-72
2021/10/03 01:40:23;;;;;;;52.92;38.67;;;;;;;6.30;100.00;99308.72;2043057;29;20203;-72
2021/10/03 01:41:30;;;;;;;55.60;37.05;;;;;;;6.27;100.00;99298.63;2042096;29;20298;-73
2021/10/03 01:42:38;;;;;;;55.05;37.40;;;;;;;6.26;100.00;99308.44;2042455;29;20193;-72
2021/10/03 01:43:46;;;;;;;62.15;38.80;;;;;;;6.28;100.00;99300.22;2042673;29;20213;-72
2021/10/03 01:44:48;;;;;;;54.70;38.05;;;;;;;6.26;100.00;99312.94;2042454;29;20286;-72
2021/10/03 01:45:57;;;;;;;55.30;37.42;;;;;;;6.21;100.00;99311.88;2042996;29;20230;-72
2021/10/03 01:47:01;;;;;;;52.70;38.03;;;;;;;6.20;100.00;99310.28;2042547;29;20199;-72
2021/10/03 01:48:10;;;;;;;54.72;36.78;;;;;;;6.17;100.00;99312.66;2042431;29;20263;-72
2021/10/03 01:49:18;;;;;;;50.63;37.08;;;;;;;6.15;100.00;99312.91;2043261;29;20190;-73
2021/10/03 01:50:29;;;;;;;56.92;38.40;;;;;;;6.12;100.00;99308.13;2042989;29;20198;-72
2021/10/03 01:51:40;;;;;;;58.88;38.65;;;;;;;6.08;100.00;99307.06;2043233;29;20522;-72
2021/10/03 01:52:45;;;;;;;55.78;38.95;;;;;;;6.11;100.00;99306.53;2042594;29;20647;-72
2021/10/03 01:53:51;;;;;;;57.50;38.40;;;;;;;6.15;100.00;99304.16;2042415;29;20191;-72
2021/10/03 01:54:56;;;;;;;55.65;39.53;;;;;;;6.12;100.00;99300.19;2043094;29;20259;-73
2021/10/03 01:56:03;;;;;;;65.65;40.08;;;;;;;6.14;100.00;99303.34;2042826;29;20262;-72
2021/10/03 01:57:13;;;;;;;53.25;37.90;;;;;;;6.17;100.00;99302.84;2042886;29;20688;-72
2021/10/03 01:58:20;;;;;;;55.88;37.47;;;;;;;6.15;100.00;99291.69;2042195;29;20214;-72
2021/10/03 01:59:28;;;;;;;57.38;37.88;;;;;;;6.12;100.00;99286.13;2042239;29;20195;-72
2021/10/03 02:00:39;;;;;;;53.97;36.78;;;;;;;6.11;100.00;99295.94;2042740;29;20195;-72
2021/10/03 02:01:50;;;;;;;55.90;37.60;;;;;;;6.07;100.00;99291.41;2043010;29;20175;-72
2021/10/03 02:03:00;;;;;;;54.22;36.42;;;;;;;6.05;100.00;99289.03;2042714;29;20203;-72
2021/10/03 02:04:08;;;;;;;52.17;37.35;;;;;;;6.03;100.00;99283.19;2035379;29;20205;-72
2021/10/03 02:05:12;;;;;;;56.10;37.83;;;;;;;6.01;100.00;99281.88;2042308;29;20187;-72
2021/10/03 02:06:17;;;;;;;47.78;35.10;;;;;;;5.99;100.00;99291.91;2042935;29;20650;-72
2021/10/03 02:07:18;;;;;;;53.60;36.05;;;;;;;5.94;100.00;99290.06;2042036;29;20293;-73
2021/10/03 02:08:24;;;;;;;52.83;36.88;;;;;;;5.93;100.00;99289.25;2042310;29;20716;-72
2021/10/03 02:09:30;;;;;;;56.55;37.75;;;;;;;5.90;100.00;99288.94;2042176;29;20246;-73
2021/10/03 02:10:33;;;;;;;53.97;37.75;;;;;;;5.94;100.00;99295.34;2041366;29;20203;-72
2021/10/03 02:11:47;;;;;;;57.28;37.85;;;;;;;5.95;100.00;99289.00;2041724;29;20206;-72
2021/10/03 02:12:52;;;;;;;53.30;36.75;;;;;;;5.95;100.00;99289.78;2042284;29;20277;-72
2021/10/03 02:13:56;;;;;;;54.28;37.72;;;;;;;5.92;100.00;99286.88;2042764;29;20250;-72
2021/10/03 02:14:59;;;;;;;56.33;37.70;;;;;;;5.90;100.00;99288.94;2042217;29;20574;-72
2021/10/03 02:16:02;;;;;;;54.72;36.75;;;;;;;5.88;100.00;99283.91;2042258;29;20230;-73
2021/10/03 02:17:06;;;;;;;49.70;35.08;;;;;;;5.87;100.00;99286.81;2042690;29;20203;-72
2021/10/03 02:18:10;;;;;;;44.85;35.08;;;;;;;5.86;100.00;99279.94;2042964;29;20206;-72
2021/10/03 02:19:13;;;;;;;47.45;35.35;;;;;;;5.85;100.00;99288.94;2042750;29;20658;-72
2021/10/03 02:20:20;;;;;;;51.45;35.90;;;;;;;5.83;100.00;99288.41;2042715;29;20214;-72
2021/10/03 02:21:21;;;;;;;55.33;38.80;;;;;;;5.82;100.00;99286.78;2042038;29;20203;-72
2021/10/03 02:22:25;;;;;;;59.43;39.13;;;;;;;5.88;100.00;99285.75;2042234;29;20254;-72
2021/10/03 02:23:30;;;;;;;58.25;39.67;;;;;;;5.92;100.00;99281.59;2042920;29;20203;-72
2021/10/03 02:24:33;;;;;;;58.70;39.15;;;;;;;5.93;100.00;99283.19;2042680;29;20594;-72
2021/10/03 02:25:43;;;;;;;53.95;36.88;;;;;;;5.91;100.00;99272.84;2042732;29;20203;-73
2021/10/03 02:26:46;;;;;;;57.70;38.42;;;;;;;5.90;100.00;99270.41;2042471;29;20211;-72
2021/10/03 02:27:48;;;;;;;49.70;36.97;;;;;;;5.89;100.00;99280.19;2042661;29;20206;-72
2021/10/03 02:28:51;;;;;;;57.78;37.25;;;;;;;5.87;100.00;99278.88;2042710;29;20218;-72
2021/10/03 02:29:56;;;;;;;51.05;36.67;;;;;;;5.85;100.00;99270.41;2042000;29;20265;-72
2021/10/03 02:31:01;;;;;;;57.42;37.40;;;;;;;5.83;100.00;99275.16;2042097;29;20631;-72
2021/10/03 02:32:05;;;;;;;51.85;36.63;;;;;;;5.77;100.00;99276.19;2042128;29;20314;-72
2021/10/03 02:33:07;;;;;;;52.25;36.40;;;;;;;5.75;100.00;99276.47;2034293;29;20207;-72
2021/10/03 02:34:11;;;;;;;50.95;35.55;;;;;;;5.73;100.00;99278.53;2042262;29;20326;-72
2021/10/03 02:35:13;;;;;;;55.53;37.78;;;;;;;5.72;100.00;99276.16;2042206;29;20231;-73
2021/10/03 02:36:21;;;;;;;55.15;38.75;;;;;;;5.75;100.00;99276.47;2042281;29;20214;-72
2021/10/03 02:37:25;;;;;;;55.88;39.38;;;;;;;5.79;100.00;99266.94;2042767;29;20279;-72
2021/10/03 02:38:33;;;;;;;58.00;39.20;;;;;;;5.83;100.00;99272.53;2042646;29;20650;-72
2021/10/03 02:39:35;;;;;;;58.20;38.25;;;;;;;5.84;100.00;99268.81;2042588;29;20290;-72
2021/10/03 02:40:42;;;;;;;60.27;39.63;;;;;;;5.84;100.00;99268.81;2042658;29;20254;-72
2021/10/03 02:41:47;;;;;;;57.72;39.00;;;;;;;5.90;100.00;99267.75;2042788;29;20178;-72
2021/10/03 02:42:49;;;;;;;63.05;40.47;;;;;;;5.91;100.00;99266.75;2042589;29;20617;-72
2021/10/03 02:43:56;;;;;;;60.08;40.55;;;;;;;5.93;100.00;99270.72;2042699;29;20650;-72
2021/10/03 02:44:59;;;;;;;60.47;40.15;;;;;;;5.95;100.00;99268.59;2042172;29;20214;-72
2021/10/03 02:46:03;;;;;;;60.45;41.60;;;;;;;5.98;100.00;99263.84;2042092;29;20207;-72
2021/10/03 02:47:11;;;;;;;60.17;39.80;;;;;;;5.96;100.00;99264.09;2041962;29;20258;-72
2021/10/03 02:48:14;;;;;;;48.85;37.25;;;;;;;5.94;100.00;99253.78;2042583;29;20179;-71
2021/10/03 02:49:16;;;;;;;52.30;38.08;;;;;;;5.92;100.00;99266.50;2042720;29;20203;-71
2021/10/03 02:50:21;;;;;;;50.85;36.05;;;;;;;5.91;100.00;99270.19;2042065;29;20213;-72
2021/10/03 02:51:26;;;;;;;48.85;35.72;;;;;;;5.87;100.00;99268.28;2041979;29;20194;-72
2021/10/03 02:52:28;;;;;;;53.35;37.53;;;;;;;5.83;100.00;99264.56;2042677;29;20218;-71
2021/10/03 02:53:32;;;;;;;56.30;37.72;;;;;;;5.79;100.00;99263.50;2042237;29;20254;-72
2021/10/03 02:54:34;;;;;;;56.10;37.58;;;;;;;5.78;100.00;99268.00;2042451;29;20202;-72
2021/10/03 02:55:41;;;;;;;56.30;38.22;;;;;;;5.75;100.00;99265.06;2041958;29;20215;-71
2021/10/03 02:56:43;;;;;;;52.30;37.70;;;;;;;5.73;100.00;99267.16;2042650;29;20184;-72
2021/10/03 02:57:46;;;;;;;51.03;37.10;;;;;;;5.71;100.00;99269.28;2042550;29;20720;-72
2021/10/03 02:58:47;;;;;;;52.55;37.70;;;;;;;5.68;100.00;99260.81;2041743;29;20242;-72
2021/10/03 02:59:52;;;;;;;53.83;35.53;;;;;;;5.66;100.00;99257.63;2041837;29;20553;-72
2021/10/03 03:00:57;;;;;;;53.53;37.97;;;;;;;5.63;100.00;99263.41;2042193;29;20269;-72
2021/10/03 03:02:01;;;;;;;52.88;35.78;;;;;;;5.63;100.00;99257.34;2042293;29;20610;-72
2021/10/03 03:03:07;;;;;;;54.97;36.90;;;;;;;5.61;100.00;99254.16;2042337;29;20306;-72
2021/10/03 03:04:10;;;;;;;57.10;38.33;;;;;;;5.60;100.00;99247.28;2041881;29;20712;-72
2021/10/03 03:05:17;;;;;;;51.67;37.85;;;;;;;5.57;100.00;99248.59;2042404;29;20195;-72
2021/10/03 03:06:26;;;;;;;47.88;35.75;;;;;;;5.57;100.00;99248.59;2041736;29;20294;-72
2021/10/03 03:07:29;;;;;;;51.05;36.13;;;;;;;5.54;100.00;99248.28;2035488;29;20317;-72
2021/10/03 03:08:41;;;;;;;48.97;35.70;;;;;;;5.52;100.00;99240.63;2041836;29;20258;-72
2021/10/03 03:09:46;;;;;;;50.58;37.28;;;;;;;5.51;100.00;99241.69;2041563;29;20211;-72
2021/10/03 03:10:49;;;;;;;48.38;35.33;;;;;;;5.49;100.00;99246.44;2042082;29;20187;-72
2021/10/03 03:11:50;;;;;;;52.15;36.78;;;;;;;5.49;100.00;99240.34;2042378;29;20257;-72
2021/10/03 03:13:00;;;;;;;53.25;37.17;;;;;;;5.44;100.00;99238.47;2042465;29;20207;-72
2021/10/03 03:14:03;;;;;;;47.90;35.05;;;;;;;5.45;100.00;99239.25;2042546;29;20178;-72
2021/10/03 03:15:10;;;;;;;47.30;35.45;;;;;;;5.43;100.00;99239.53;2042312;29;20668;-71
2021/10/03 03:16:12;;;;;;;51.97;36.83;;;;;;;5.40;100.00;99234.75;2042312;29;20195;-72
2021/10/03 03:17:20;;;;;;;48.90;35.45;;;;;;;5.39;100.00;99241.91;2041090;29;20293;-72
2021/10/03 03:18:25;;;;;;;55.10;35.88;;;;;;;5.36;100.00;99238.94;2042016;29;20195;-72
2021/10/03 03:19:28;;;;;;;47.55;35.15;;;;;;;5.34;100.00;99244.50;2042302;29;20215;-72
2021/10/03 03:20:40;;;;;;;49.17;36.20;;;;;;;5.33;100.00;99250.84;2042307;29;20191;-71
2021/10/03 03:21:46;;;;;;;57.63;37.20;;;;;;;5.33;100.00;99242.13;2042038;29;20210;-72
2021/10/03 03:22:59;;;;;;;50.60;36.90;;;;;;;5.31;100.00;99241.59;2041529;29;20223;-72
2021/10/03 03:24:05;;;;;;;62.50;40.45;;;;;;;5.30;100.00;99242.63;2041769;29;20686;-72
2021/10/03 03:25:10;;;;;;;56.40;39.20;;;;;;;5.32;100.00;99245.81;2041512;29;20230;-72
2021/10/03 03:26:11;;;;;;;56.40;38.92;;;;;;;5.31;100.00;99238.94;2041729;29;20198;-72
2021/10/03 03:27:14;;;;;;;55.67;38.63;;;;;;;5.31;100.00;99238.94;2042266;29;20194;-72
2021/10/03 03:28:16;;;;;;;64.07;41.35;;;;;;;5.31;100.00;99234.44;2042463;29;20206;-72
2021/10/03 03:29:19;;;;;;;63.72;41.72;;;;;;;5.32;100.00;99238.69;2041744;29;20229;-72
2021/10/03 03:30:22;;;;;;;62.80;40.75;;;;;;;5.34;100.00;99239.22;2041611;29;20301;-72
2021/10/03 03:31:28;;;;;;;62.63;41.10;;;;;;;5.35;100.00;99232.06;2042239;29;20224;-72
2021/10/03 03:32:33;;;;;;;58.78;41.70;;;;;;;5.37;100.00;99235.25;2042197;29;20195;-72
2021/10/03 03:33:37;;;;;;;60.08;40.63;;;;;;;5.37;100.00;99236.03;2042089;29;20253;-72
2021/10/03 03:34:38;;;;;;;62.88;41.63;;;;;;;5.34;100.00;99226.00;2042319;29;20543;-73
2021/10/03 03:35:41;;;;;;;64.30;41.23;;;;;;;5.37;100.00;99227.31;2042386;29;20218;-72
2021/10/03 03:36:46;;;;;;;64.55;42.65;;;;;;;5.39;100.00;99217.28;2042077;29;20203;-72
2021/10/03 03:37:49;;;;;;;74.00;43.65;;;;;;;5.42;100.00;99224.69;2042358;29;20199;-72
2021/10/03 03:38:52;;;;;;;72.25;44.15;;;;;;;5.49;100.00;99224.47;2042096;29;20658;-72
2021/10/03 03:39:54;;;;;;;72.30;44.17;;;;;;;5.52;100.00;99224.75;2041219;29;20210;-73
2021/10/03 03:40:57;;;;;;;74.43;46.30;;;;;;;5.57;100.00;99231.91;2033757;29;20195;-73
2021/10/03 03:42:00;;;;;;;73.75;46.08;;;;;;;5.58;100.00;99226.38;2041722;29;20744;-72
2021/10/03 03:43:03;;;;;;;75.55;45.40;;;;;;;5.61;100.00;99225.84;2040503;29;20227;-72
2021/10/03 03:44:05;;;;;;;77.00;45.83;;;;;;;5.62;100.00;99232.72;2042108;29;20277;-72
2021/10/03 03:45:09;;;;;;;79.68;45.65;;;;;;;5.64;100.00;99232.44;2041350;29;20213;-72
2021/10/03 03:46:11;;;;;;;80.55;48.00;;;;;;;5.64;100.00;99227.16;2041596;29;20306;-72
2021/10/03 03:47:14;;;;;;;84.55;50.60;;;;;;;5.65;100.00;99234.88;2041938;29;20211;-72
2021/10/03 03:48:15;;;;;;;82.38;48.75;;;;;;;5.66;100.00;99239.09;2042339;29;20253;-73
2021/10/03 03:49:19;;;;;;;91.10;50.07;;;;;;;5.67;100.00;99238.03;2041078;29;20270;-72
2021/10/03 03:50:22;;;;;;;90.32;49.42;;;;;;;5.68;100.00;99239.63;2041526;29;20190;-73
2021/10/03 03:51:25;;;;;;;83.05;48.40;;;;;;;5.70;100.00;99236.72;2041782;29;20215;-72
2021/10/03 03:52:26;;;;;;;91.13;50.60;;;;;;;5.71;100.00;99232.22;2041394;29;20206;-72
2021/10/03 03:53:30;;;;;;;88.28;50.17;;;;;;;5.68;100.00;99233.53;2041446;29;20199;-72
2021/10/03 03:54:31;;;;;;;90.15;49.75;;;;;;;5.69;100.00;99232.47;2042119;29;20202;-72
2021/10/03 03:55:39;;;;;;;94.38;52.50;;;;;;;5.70;100.00;99236.72;2042191;29;20780;-72
2021/10/03 03:56:42;;;;;;;91.45;50.70;;;;;;;5.71;100.00;99237.50;2042041;29;20570;-72
2021/10/03 03:57:45;;;;;;;89.07;50.03;;;;;;;5.73;100.00;99241.47;2041665;29;20629;-72
2021/10/03 03:58:47;;;;;;;91.43;51.83;;;;;;;5.75;100.00;99238.59;2041589;29;20271;-72
2021/10/03 03:59:52;;;;;;;83.07;48.50;;;;;;;5.73;100.00;99236.19;2041433;29;20737;-72
2021/10/03 04:00:53;;;;;;;82.72;49.90;;;;;;;5.74;100.00;99244.97;2041994;29;20199;-72
2021/10/03 04:01:57;;;;;;;91.60;49.65;;;;;;;5.71;100.00;99238.31;2042076;29;20191;-73
2021/10/03 04:02:59;;;;;;;81.85;47.78;;;;;;;5.73;100.00;99240.69;2041933;29;20227;-72
2021/10/03 04:04:03;;;;;;;86.93;48.85;;;;;;;5.70;100.00;99238.56;2041981;29;20225;-72
2021/10/03 04:05:06;;;;;;;81.10;47.92;;;;;;;5.72;100.00;99239.91;2042000;29;20202;-72
2021/10/03 04:06:12;;;;;;;82.95;47.30;;;;;;;5.71;100.00;99243.59;2041597;29;20297;-72
2021/10/03 04:07:20;;;;;;;75.53;45.58;;;;;;;5.70;100.00;99238.56;2041406;29;20203;-72
2021/10/03 04:08:26;;;;;;;79.97;47.10;;;;;;;5.71;100.00;99240.97;2041282;29;20748;-72
2021/10/03 04:09:26;;;;;;;83.97;48.30;;;;;;;5.72;100.00;99233.81;2041921;29;20191;-72
2021/10/03 04:10:29;;;;;;;75.00;44.77;;;;;;;5.71;100.00;99240.16;2042022;29;20658;-72
2021/10/03 04:11:32;;;;;;;77.32;46.45;;;;;;;5.70;100.00;99243.88;2042181;29;20527;-72
2021/10/03 04:12:37;;;;;;;78.97;46.05;;;;;;;5.69;100.00;99240.44;2041908;29;20199;-72
2021/10/03 04:13:39;;;;;;;78.63;45.45;;;;;;;5.67;100.00;99239.91;2041973;29;20258;-73
2021/10/03 04:14:41;;;;;;;73.15;43.88;;;;;;;5.67;100.00;99242.53;2041980;29;20217;-72
2021/10/03 04:15:42;;;;;;;70.55;43.40;;;;;;;5.65;100.00;99250.75;2041570;29;20677;-72
2021/10/03 04:16:47;;;;;;;71.43;43.05;;;;;;;5.64;100.00;99243.84;2041957;29;20250;-72
2021/10/03 04:17:48;;;;;;;70.60;43.53;;;;;;;5.64;100.00;99254.41;2041953;29;20199;-72
2021/10/03 04:18:52;;;;;;;70.93;43.65;;;;;;;5.64;100.00;99243.03;2042147;29;20194;-73
2021/10/03 04:19:55;;;;;;;69.63;42.65;;;;;;;5.61;100.00;99247.00;2041996;29;20202;-72
2021/10/03 04:20:58;;;;;;;71.40;43.33;;;;;;;5.62;100.00;99245.94;2042045;29;20195;-72
2021/10/03 04:22:00;;;;;;;66.93;42.75;;;;;;;5.61;100.00;99247.00;2042045;29;20195;-72
2021/10/03 04:23:02;;;;;;;66.45;42.00;;;;;;;5.61;100.00;99239.06;2041961;29;20294;-73
2021/10/03 04:24:06;;;;;;;73.25;43.85;;;;;;;5.62;100.00;99250.44;2042028;29;20210;-72
2021/10/03 04:25:10;;;;;;;64.35;41.53;;;;;;;5.62;100.00;99245.16;2041651;29;20211;-72
2021/10/03 04:26:14;;;;;;;64.22;42.97;;;;;;;5.62;100.00;99243.31;2041883;29;20203;-72
2021/10/03 04:27:29;;;;;;;65.90;42.65;;;;;;;5.62;100.00;99240.66;2042237;29;20168;-72
2021/10/03 04:28:37;;;;;;;63.78;42.80;;;;;;;5.61;100.00;99243.56;2041938;29;20205;-72
2021/10/03 04:29:43;;;;;;;63.40;42.40;;;;;;;5.59;100.00;99245.69;2034466;29;20211;-72
2021/10/03 04:30:46;;;;;;;61.85;42.70;;;;;;;5.60;100.00;99249.91;2034339;29;20271;-72
2021/10/03 04:31:59;;;;;;;69.57;41.27;;;;;;;5.60;100.00;99249.91;2041479;29;20251;-72
2021/10/03 04:33:01;;;;;;;61.38;42.78;;;;;;;5.60;100.00;99247.28;2041433;29;20952;-72
2021/10/03 04:34:08;;;;;;;69.13;43.60;;;;;;;5.73;100.00;99248.63;2043005;29;20211;-73
2021/10/03 04:35:13;;;;;;;75.05;42.88;;;;;;;5.71;100.00;99253.41;2043656;29;20221;-72
2021/10/03 04:36:22;;;;;;;66.30;42.63;;;;;;;5.67;100.00;99248.63;2043510;29;20191;-72
2021/10/03 04:37:27;;;;;;;67.45;41.90;;;;;;;5.64;100.00;99249.13;2043639;29;20185;-73
2021/10/03 04:38:33;;;;;;;73.63;43.90;;;;;;;5.64;100.00;99245.69;2043465;29;20186;-72
2021/10/03 04:39:41;;;;;;;70.88;42.40;;;;;;;5.66;100.00;99251.53;2043688;29;20544;-72
2021/10/03 04:40:49;;;;;;;68.38;43.58;;;;;;;5.68;100.00;99250.22;2043518;29;20294;-71
2021/10/03 04:41:58;;;;;;;63.30;41.35;;;;;;;5.67;100.00;99240.69;2043684;29;20210;-72
2021/10/03 04:43:07;;;;;;;68.32;43.13;;;;;;;5.70;100.00;99249.94;2043470;29;20201;-72
2021/10/03 04:44:13;;;;;;;67.18;43.53;;;;;;;5.70;100.00;99249.16;2043345;29;20211;-71
2021/10/03 04:45:15;;;;;;;67.28;42.90;;;;;;;5.66;100.00;99243.59;2042726;29;20259;-72
2021/10/03 04:46:16;;;;;;;67.45;43.15;;;;;;;5.65;100.00;99245.44;2042896;29;20223;-72
2021/10/03 04:47:26;;;;;;;61.57;42.27;;;;;;;5.65;100.00;99248.09;2043456;29;20194;-72
2021/10/03 04:48:33;;;;;;;73.43;44.08;;;;;;;5.62;100.00;99243.31;2043507;29;20431;-71
2021/10/03 04:49:50;;;;;;;65.53;41.35;;;;;;;5.63;100.00;99252.84;2042980;29;20211;-72
2021/10/03 04:50:59;;;;;;;69.47;43.13;;;;;;;5.72;100.00;99249.69;2043239;29;20210;-71
2021/10/03 04:52:02;;;;;;;72.88;42.10;;;;;;;5.74;100.00;99253.69;2043612;29;20254;-72
2021/10/03 04:53:05;;;;;;;64.10;41.92;;;;;;;5.76;100.00;99245.50;2043105;29;20229;-71
2021/10/03 04:54:10;;;;;;;64.53;42.13;;;;;;;5.81;100.00;99250.78;2035529;29;20627;-72
2021/10/03 04:55:22;;;;;;;62.40;40.85;;;;;;;5.82;100.00;99247.06;2035977;29;20267;-72
2021/10/03 04:56:30;;;;;;;69.68;42.70;;;;;;;5.81;100.00;99245.47;2042788;29;20199;-72
2021/10/03 04:57:37;;;;;;;65.68;41.95;;;;;;;5.79;100.00;99248.41;2043589;29;20245;-72
2021/10/03 04:58:55;;;;;;;59.33;41.33;;;;;;;5.75;100.00;99239.41;2043484;29;20195;-72
2021/10/03 04:59:58;;;;;;;63.38;39.38;;;;;;;5.73;100.00;99243.34;2043300;29;20202;-72
2021/10/03 05:01:01;;;;;;;61.80;40.97;;;;;;;5.71;100.00;99248.09;2043349;29;20724;-73
2021/10/03 05:02:10;;;;;;;62.22;40.60;;;;;;;5.68;100.00;99252.88;2043320;29;20191;-72